Terminal Aerodrome Forecast
Issued by NWS Wilmington, NC

Home | Current Version | Previous Version | Text Only | Print | Product List | Glossary On
Versions: 1 2 3 4 5 6 7 8 9 10 11 12 13 14 15
218
FTUS42 KILM 241730
TAFILM
TAF
KILM 241730Z 2418/2518 23012G22KT P6SM SCT040
     FM242000 22011G21KT P6SM VCTS SCT040CB BKN120
     FM250100 21010KT 5SM -TSRA BKN040CB
     FM250500 22009KT P6SM VCTS BKN035CB
     FM251000 27006KT P6SM BKN050=

USA.gov is the U.S. government's official web portal to all federal, state and local government web resources and services.